sensor_id;sensor_type;location;lat;lon;timestamp;noise_LAeq;noise_LA_min;noise_LA_max;noise_LA01;noise_LA95
41518;Laerm;27249;48.094;-1.690;2023-03-07T00:01:19;47.01;39.34;57.61;;
41518;Laerm;27249;48.094;-1.690;2023-03-07T00:03:45;44.66;40.53;54.57;;
41518;Laerm;27249;48.094;-1.690;2023-03-07T00:06:10;47.62;40.71;62.07;;
41518;Laerm;27249;48.094;-1.690;2023-03-07T00:08:35;50.10;40.23;62.77;;
41518;Laerm;27249;48.094;-1.690;2023-03-07T00:11:01;49.28;41.46;59.96;;
41518;Laerm;27249;48.094;-1.690;2023-03-07T00:13:27;50.84;40.80;64.00;;
41518;Laerm;27249;48.094;-1.690;2023-03-07T00:15:54;46.46;40.80;59.35;;
41518;Laerm;27249;48.094;-1.690;2023-03-07T00:18:19;45.93;40.98;57.53;;
41518;Laerm;27249;48.094;-1.690;2023-03-07T00:20:44;47.48;39.70;61.71;;
41518;Laerm;27249;48.094;-1.690;2023-03-07T00:23:09;43.91;40.43;53.94;;
41518;Laerm;27249;48.094;-1.690;2023-03-07T00:25:34;47.96;40.13;60.77;;
41518;Laerm;27249;48.094;-1.690;2023-03-07T00:28:00;44.19;39.81;53.47;;
41518;Laerm;27249;48.094;-1.690;2023-03-07T00:30:25;46.20;38.81;62.20;;
41518;Laerm;27249;48.094;-1.690;2023-03-07T00:32:50;49.87;40.62;63.13;;
41518;Laerm;27249;48.094;-1.690;2023-03-07T00:35:16;45.41;39.21;56.58;;
41518;Laerm;27249;48.094;-1.690;2023-03-07T00:37:41;43.36;39.08;57.26;;
41518;Laerm;27249;48.094;-1.690;2023-03-07T00:40:06;45.89;39.08;61.69;;
41518;Laerm;27249;48.094;-1.690;2023-03-07T00:42:33;46.53;41.06;58.99;;
41518;Laerm;27249;48.094;-1.690;2023-03-07T00:44:58;43.81;41.06;49.87;;
41518;Laerm;27249;48.094;-1.690;2023-03-07T00:47:23;43.71;39.46;54.79;;
41518;Laerm;27249;48.094;-1.690;2023-03-07T00:49:50;43.81;39.46;60.85;;
41518;Laerm;27249;48.094;-1.690;2023-03-07T00:52:15;49.19;38.81;62.74;;
41518;Laerm;27249;48.094;-1.690;2023-03-07T00:54:40;46.17;40.03;57.90;;
41518;Laerm;27249;48.094;-1.690;2023-03-07T00:57:05;42.72;38.81;46.15;;
41518;Laerm;27249;48.094;-1.690;2023-03-07T00:59:31;46.39;40.80;58.57;;
41518;Laerm;27249;48.094;-1.690;2023-03-07T01:01:56;43.01;39.70;55.43;;
41518;Laerm;27249;48.094;-1.690;2023-03-07T01:04:21;47.70;39.58;65.55;;
41518;Laerm;27249;48.094;-1.690;2023-03-07T01:06:46;44.02;39.08;56.24;;
41518;Laerm;27249;48.094;-1.690;2023-03-07T01:09:12;43.86;39.34;52.85;;
41518;Laerm;27249;48.094;-1.690;2023-03-07T01:11:37;45.43;39.08;56.74;;
41518;Laerm;27249;48.094;-1.690;2023-03-07T01:14:03;44.03;40.23;55.42;;
41518;Laerm;27249;48.094;-1.690;2023-03-07T01:16:30;45.66;39.92;61.00;;
41518;Laerm;27249;48.094;-1.690;2023-03-07T01:18:57;42.72;38.67;51.64;;
41518;Laerm;27249;48.094;-1.690;2023-03-07T01:21:24;44.85;38.95;56.87;;
41518;Laerm;27249;48.094;-1.690;2023-03-07T01:23:49;43.55;39.34;56.75;;
41518;Laerm;27249;48.094;-1.690;2023-03-07T01:26:16;43.66;38.05;58.01;;
41518;Laerm;27249;48.094;-1.690;2023-03-07T01:28:42;47.63;39.70;61.33;;
41518;Laerm;27249;48.094;-1.690;2023-03-07T01:31:07;49.93;39.46;66.77;;
41518;Laerm;27249;48.094;-1.690;2023-03-07T01:33:32;48.82;40.54;61.40;;
41518;Laerm;27249;48.094;-1.690;2023-03-07T01:35:57;47.82;40.13;68.97;;
41518;Laerm;27249;48.094;-1.690;2023-03-07T01:38:23;44.82;38.21;58.30;;
41518;Laerm;27249;48.094;-1.690;2023-03-07T01:40:48;44.51;39.46;52.72;;
41518;Laerm;27249;48.094;-1.690;2023-03-07T01:43:21;43.53;38.52;52.10;;
41518;Laerm;27249;48.094;-1.690;2023-03-07T01:48:12;50.83;40.89;63.87;;
41518;Laerm;27249;48.094;-1.690;2023-03-07T01:50:38;43.10;37.12;57.94;;
41518;Laerm;27249;48.094;-1.690;2023-03-07T01:53:03;42.89;39.34;50.14;;
41518;Laerm;27249;48.094;-1.690;2023-03-07T01:55:30;50.15;40.62;64.21;;
41518;Laerm;27249;48.094;-1.690;2023-03-07T01:57:57;43.44;39.70;48.52;;
41518;Laerm;27249;48.094;-1.690;2023-03-07T02:00:24;46.52;40.23;58.89;;
41518;Laerm;27249;48.094;-1.690;2023-03-07T02:03:08;45.62;40.89;56.95;;
41518;Laerm;27249;48.094;-1.690;2023-03-07T02:05:40;44.52;40.71;55.95;;
41518;Laerm;27249;48.094;-1.690;2023-03-07T02:08:07;43.57;41.22;48.48;;
41518;Laerm;27249;48.094;-1.690;2023-03-07T02:10:34;49.81;40.03;61.42;;
41518;Laerm;27249;48.094;-1.690;2023-03-07T02:12:59;42.94;39.46;45.77;;
41518;Laerm;27249;48.094;-1.690;2023-03-07T02:15:25;50.54;40.43;62.27;;
41518;Laerm;27249;48.094;-1.690;2023-03-07T02:17:50;43.13;39.08;48.61;;
41518;Laerm;27249;48.094;-1.690;2023-03-07T02:22:50;43.26;40.23;48.18;;
41518;Laerm;27249;48.094;-1.690;2023-03-07T02:27:41;43.56;41.06;46.76;;
41518;Laerm;27249;48.094;-1.690;2023-03-07T02:30:07;43.55;40.89;49.44;;
41518;Laerm;27249;48.094;-1.690;2023-03-07T02:32:32;43.43;40.33;54.82;;
41518;Laerm;27249;48.094;-1.690;2023-03-07T02:34:57;47.84;40.53;62.30;;
41518;Laerm;27249;48.094;-1.690;2023-03-07T02:37:32;54.53;40.43;69.01;;
41518;Laerm;27249;48.094;-1.690;2023-03-07T02:39:59;49.55;40.89;61.71;;
41518;Laerm;27249;48.094;-1.690;2023-03-07T02:42:26;46.16;40.80;59.31;;
41518;Laerm;27249;48.094;-1.690;2023-03-07T02:44:58;47.76;41.96;60.02;;
41518;Laerm;27249;48.094;-1.690;2023-03-07T02:47:24;44.12;40.98;55.71;;
41518;Laerm;27249;48.094;-1.690;2023-03-07T02:49:49;45.28;39.92;56.11;;
41518;Laerm;27249;48.094;-1.690;2023-03-07T02:52:15;43.64;41.22;50.48;;
41518;Laerm;27249;48.094;-1.690;2023-03-07T02:54:40;43.95;40.62;46.52;;
41518;Laerm;27249;48.094;-1.690;2023-03-07T02:57:05;46.85;41.82;58.96;;
41518;Laerm;27249;48.094;-1.690;2023-03-07T02:59:30;48.76;40.89;61.44;;
41518;Laerm;27249;48.094;-1.690;2023-03-07T03:01:56;49.24;41.33;59.77;;
41518;Laerm;27249;48.094;-1.690;2023-03-07T03:04:21;47.07;41.22;58.60;;
41518;Laerm;27249;48.094;-1.690;2023-03-07T03:06:47;46.04;41.30;58.12;;
41518;Laerm;27249;48.094;-1.690;2023-03-07T03:09:12;44.24;41.14;54.27;;
41518;Laerm;27249;48.094;-1.690;2023-03-07T03:11:37;43.91;39.81;59.91;;
41518;Laerm;27249;48.094;-1.690;2023-03-07T03:14:02;45.14;41.38;54.84;;
41518;Laerm;27249;48.094;-1.690;2023-03-07T03:16:28;45.74;40.45;57.60;;
41518;Laerm;27249;48.094;-1.690;2023-03-07T03:18:53;48.38;41.46;65.12;;
41518;Laerm;27249;48.094;-1.690;2023-03-07T03:21:18;44.53;41.14;57.76;;
41518;Laerm;27249;48.094;-1.690;2023-03-07T03:23:43;51.51;41.46;62.57;;
41518;Laerm;27249;48.094;-1.690;2023-03-07T03:26:09;46.72;40.80;58.54;;
41518;Laerm;27249;48.094;-1.690;2023-03-07T03:28:36;45.62;41.38;55.91;;
41518;Laerm;27249;48.094;-1.690;2023-03-07T03:31:02;44.37;41.30;54.92;;
41518;Laerm;27249;48.094;-1.690;2023-03-07T03:33:28;47.12;41.30;57.94;;
41518;Laerm;27249;48.094;-1.690;2023-03-07T03:35:54;50.62;42.09;62.74;;
41518;Laerm;27249;48.094;-1.690;2023-03-07T03:38:20;43.50;40.71;50.15;;
41518;Laerm;27249;48.094;-1.690;2023-03-07T03:40:45;48.24;40.62;64.62;;
41518;Laerm;27249;48.094;-1.690;2023-03-07T03:43:10;51.72;40.53;62.27;;
41518;Laerm;27249;48.094;-1.690;2023-03-07T03:45:36;54.72;42.09;66.32;;
41518;Laerm;27249;48.094;-1.690;2023-03-07T03:48:01;49.57;42.41;68.93;;
41518;Laerm;27249;48.094;-1.690;2023-03-07T03:50:26;48.46;42.09;60.60;;
41518;Laerm;27249;48.094;-1.690;2023-03-07T03:52:51;49.87;41.38;67.67;;
41518;Laerm;27249;48.094;-1.690;2023-03-07T03:55:16;47.01;40.89;58.61;;
41518;Laerm;27249;48.094;-1.690;2023-03-07T03:57:42;47.92;41.46;58.12;;
41518;Laerm;27249;48.094;-1.690;2023-03-07T04:00:07;44.02;41.11;52.45;;
41518;Laerm;27249;48.094;-1.690;2023-03-07T04:02:33;47.24;42.29;59.69;;
41518;Laerm;27249;48.094;-1.690;2023-03-07T04:04:58;47.36;40.33;60.04;;
41518;Laerm;27249;48.094;-1.690;2023-03-07T04:07:23;43.84;41.14;49.93;;
41518;Laerm;27249;48.094;-1.690;2023-03-07T04:09:52;48.53;42.59;60.08;;
41518;Laerm;27249;48.094;-1.690;2023-03-07T04:12:18;44.43;42.16;50.39;;
41518;Laerm;27249;48.094;-1.690;2023-03-07T04:14:43;50.69;42.29;61.57;;
41518;Laerm;27249;48.094;-1.690;2023-03-07T04:17:08;45.95;41.89;53.90;;
41518;Laerm;27249;48.094;-1.690;2023-03-07T04:19:33;51.23;42.22;64.58;;
41518;Laerm;27249;48.094;-1.690;2023-03-07T04:21:59;48.82;42.22;60.12;;
41518;Laerm;27249;48.094;-1.690;2023-03-07T04:24:24;47.76;42.47;60.86;;
41518;Laerm;27249;48.094;-1.690;2023-03-07T04:26:49;49.25;42.09;62.47;;
41518;Laerm;27249;48.094;-1.690;2023-03-07T04:29:14;47.48;42.53;60.09;;
41518;Laerm;27249;48.094;-1.690;2023-03-07T04:31:39;50.82;41.75;61.48;;
41518;Laerm;27249;48.094;-1.690;2023-03-07T04:34:05;44.83;42.16;52.68;;
41518;Laerm;27249;48.094;-1.690;2023-03-07T04:36:30;48.88;42.16;59.42;;
41518;Laerm;27249;48.094;-1.690;2023-03-07T04:38:55;45.94;40.62;57.15;;
41518;Laerm;27249;48.094;-1.690;2023-03-07T04:41:21;52.99;42.09;61.48;;
41518;Laerm;27249;48.094;-1.690;2023-03-07T04:43:47;49.71;42.98;61.40;;
41518;Laerm;27249;48.094;-1.690;2023-03-07T04:46:13;46.26;41.68;57.83;;
41518;Laerm;27249;48.094;-1.690;2023-03-07T04:48:39;52.14;43.44;63.13;;
41518;Laerm;27249;48.094;-1.690;2023-03-07T04:51:05;51.01;42.82;60.79;;
41518;Laerm;27249;48.094;-1.690;2023-03-07T04:53:30;52.12;42.82;68.09;;
41518;Laerm;27249;48.094;-1.690;2023-03-07T04:55:59;47.39;42.88;56.18;;
41518;Laerm;27249;48.094;-1.690;2023-03-07T04:58:26;49.11;41.82;61.13;;
41518;Laerm;27249;48.094;-1.690;2023-03-07T05:00:51;53.31;43.86;63.62;;
41518;Laerm;27249;48.094;-1.690;2023-03-07T05:03:16;51.22;42.71;61.78;;
41518;Laerm;27249;48.094;-1.690;2023-03-07T05:05:42;48.76;41.96;57.77;;
41518;Laerm;27249;48.094;-1.690;2023-03-07T05:08:07;48.17;41.61;58.80;;
41518;Laerm;27249;48.094;-1.690;2023-03-07T05:10:33;55.26;44.07;66.01;;
41518;Laerm;27249;48.094;-1.690;2023-03-07T05:12:58;51.97;43.54;69.55;;
41518;Laerm;27249;48.094;-1.690;2023-03-07T05:15:24;57.53;43.49;71.84;;
41518;Laerm;27249;48.094;-1.690;2023-03-07T05:17:49;54.01;44.65;70.08;;
41518;Laerm;27249;48.094;-1.690;2023-03-07T05:20:14;51.72;44.15;63.63;;
41518;Laerm;27249;48.094;-1.690;2023-03-07T05:22:40;52.25;44.07;62.93;;
41518;Laerm;27249;48.094;-1.690;2023-03-07T05:25:05;53.78;44.31;64.22;;
41518;Laerm;27249;48.094;-1.690;2023-03-07T05:27:31;50.82;44.94;60.57;;
41518;Laerm;27249;48.094;-1.690;2023-03-07T05:29:56;51.35;44.83;61.02;;
41518;Laerm;27249;48.094;-1.690;2023-03-07T05:32:22;51.58;44.62;61.31;;
41518;Laerm;27249;48.094;-1.690;2023-03-07T05:34:47;55.33;44.94;65.56;;
41518;Laerm;27249;48.094;-1.690;2023-03-07T05:37:12;53.32;46.20;60.21;;
41518;Laerm;27249;48.094;-1.690;2023-03-07T05:39:37;53.98;44.69;66.13;;
41518;Laerm;27249;48.094;-1.690;2023-03-07T05:42:03;53.73;46.07;62.64;;
41518;Laerm;27249;48.094;-1.690;2023-03-07T05:44:28;58.12;45.99;70.83;;
41518;Laerm;27249;48.094;-1.690;2023-03-07T05:46:53;53.73;46.28;62.51;;
41518;Laerm;27249;48.094;-1.690;2023-03-07T05:49:18;55.24;47.36;62.18;;
41518;Laerm;27249;48.094;-1.690;2023-03-07T05:51:44;56.52;45.96;67.50;;
41518;Laerm;27249;48.094;-1.690;2023-03-07T05:54:09;54.80;45.91;66.69;;
41518;Laerm;27249;48.094;-1.690;2023-03-07T05:56:34;54.65;46.20;63.54;;
41518;Laerm;27249;48.094;-1.690;2023-03-07T05:58:59;53.97;45.54;61.67;;
41518;Laerm;27249;48.094;-1.690;2023-03-07T06:01:25;51.75;45.07;60.18;;
41518;Laerm;27249;48.094;-1.690;2023-03-07T06:03:50;54.62;46.73;64.77;;
41518;Laerm;27249;48.094;-1.690;2023-03-07T06:06:15;57.34;46.50;66.89;;
41518;Laerm;27249;48.094;-1.690;2023-03-07T06:08:41;54.36;48.22;65.55;;
41518;Laerm;27249;48.094;-1.690;2023-03-07T06:11:06;54.55;47.16;61.42;;
41518;Laerm;27249;48.094;-1.690;2023-03-07T06:13:31;57.32;49.30;63.88;;
41518;Laerm;27249;48.094;-1.690;2023-03-07T06:15:56;57.32;48.49;66.57;;
41518;Laerm;27249;48.094;-1.690;2023-03-07T06:18:22;54.74;47.00;65.82;;
41518;Laerm;27249;48.094;-1.690;2023-03-07T06:20:58;55.37;48.76;62.70;;
41518;Laerm;27249;48.094;-1.690;2023-03-07T06:23:24;57.25;50.32;65.26;;
41518;Laerm;27249;48.094;-1.690;2023-03-07T06:25:49;56.00;48.49;63.81;;
41518;Laerm;27249;48.094;-1.690;2023-03-07T06:28:14;55.52;49.41;65.08;;
41518;Laerm;27249;48.094;-1.690;2023-03-07T06:30:39;54.99;47.93;62.69;;
41518;Laerm;27249;48.094;-1.690;2023-03-07T06:33:05;57.82;49.69;65.82;;
41518;Laerm;27249;48.094;-1.690;2023-03-07T06:35:30;56.58;48.49;65.40;;
41518;Laerm;27249;48.094;-1.690;2023-03-07T06:37:55;57.09;49.84;63.90;;
41518;Laerm;27249;48.094;-1.690;2023-03-07T06:40:20;57.05;49.90;62.77;;
41518;Laerm;27249;48.094;-1.690;2023-03-07T06:42:45;57.44;51.72;62.30;;
41518;Laerm;27249;48.094;-1.690;2023-03-07T06:45:11;57.76;51.03;67.99;;
41518;Laerm;27249;48.094;-1.690;2023-03-07T06:47:36;57.70;52.16;63.16;;
41518;Laerm;27249;48.094;-1.690;2023-03-07T06:50:01;57.70;50.56;63.46;;
41518;Laerm;27249;48.094;-1.690;2023-03-07T06:52:27;57.49;51.95;64.05;;
41518;Laerm;27249;48.094;-1.690;2023-03-07T06:54:52;58.03;51.34;65.37;;
41518;Laerm;27249;48.094;-1.690;2023-03-07T06:57:17;57.98;52.61;65.52;;
41518;Laerm;27249;48.094;-1.690;2023-03-07T06:59:42;57.27;50.85;63.65;;
41518;Laerm;27249;48.094;-1.690;2023-03-07T07:02:09;58.20;50.09;67.63;;
41518;Laerm;27249;48.094;-1.690;2023-03-07T07:04:36;57.96;51.58;64.52;;
41518;Laerm;27249;48.094;-1.690;2023-03-07T07:07:01;59.09;53.69;65.93;;
41518;Laerm;27249;48.094;-1.690;2023-03-07T07:09:26;57.50;52.78;66.28;;
41518;Laerm;27249;48.094;-1.690;2023-03-07T07:11:52;58.55;50.27;66.81;;
41518;Laerm;27249;48.094;-1.690;2023-03-07T07:14:18;58.22;52.07;72.66;;
41518;Laerm;27249;48.094;-1.690;2023-03-07T07:16:43;58.74;51.40;64.34;;
41518;Laerm;27249;48.094;-1.690;2023-03-07T07:19:08;59.21;50.61;70.75;;
41518;Laerm;27249;48.094;-1.690;2023-03-07T07:21:34;58.10;51.63;71.73;;
41518;Laerm;27249;48.094;-1.690;2023-03-07T07:23:59;58.11;53.48;64.11;;
41518;Laerm;27249;48.094;-1.690;2023-03-07T07:26:24;57.19;52.51;65.46;;
41518;Laerm;27249;48.094;-1.690;2023-03-07T07:28:50;58.42;52.39;64.96;;
41518;Laerm;27249;48.094;-1.690;2023-03-07T07:31:15;57.49;50.43;69.68;;
41518;Laerm;27249;48.094;-1.690;2023-03-07T07:33:41;57.77;50.95;68.04;;
41518;Laerm;27249;48.094;-1.690;2023-03-07T07:36:06;56.86;53.45;62.72;;
41518;Laerm;27249;48.094;-1.690;2023-03-07T07:38:32;57.49;50.81;63.38;;
41518;Laerm;27249;48.094;-1.690;2023-03-07T07:40:57;57.27;50.02;61.57;;
41518;Laerm;27249;48.094;-1.690;2023-03-07T07:43:22;57.81;49.90;68.97;;
41518;Laerm;27249;48.094;-1.690;2023-03-07T07:45:47;57.96;51.64;63.97;;
41518;Laerm;27249;48.094;-1.690;2023-03-07T07:48:13;57.41;51.71;62.60;;
41518;Laerm;27249;48.094;-1.690;2023-03-07T07:50:38;58.36;50.73;65.55;;
41518;Laerm;27249;48.094;-1.690;2023-03-07T07:53:03;63.00;52.10;89.71;;
41518;Laerm;27249;48.094;-1.690;2023-03-07T07:55:28;58.52;52.78;65.55;;
41518;Laerm;27249;48.094;-1.690;2023-03-07T07:57:53;57.94;50.20;63.96;;
41518;Laerm;27249;48.094;-1.690;2023-03-07T08:00:19;61.22;52.22;76.65;;
41518;Laerm;27249;48.094;-1.690;2023-03-07T08:02:47;58.45;50.93;77.90;;
41518;Laerm;27249;48.094;-1.690;2023-03-07T08:05:16;59.39;51.54;75.62;;
41518;Laerm;27249;48.094;-1.690;2023-03-07T08:07:42;58.39;52.86;65.54;;
41518;Laerm;27249;48.094;-1.690;2023-03-07T08:10:08;59.07;47.72;71.36;;
41518;Laerm;27249;48.094;-1.690;2023-03-07T08:12:33;61.09;51.93;75.68;;
41518;Laerm;27249;48.094;-1.690;2023-03-07T08:14:59;57.99;50.92;67.43;;
41518;Laerm;27249;48.094;-1.690;2023-03-07T08:17:25;58.00;48.61;64.75;;
41518;Laerm;27249;48.094;-1.690;2023-03-07T08:19:52;56.86;49.70;65.77;;
41518;Laerm;27249;48.094;-1.690;2023-03-07T08:22:17;58.51;50.16;67.08;;
41518;Laerm;27249;48.094;-1.690;2023-03-07T08:24:43;57.16;48.25;63.30;;
41518;Laerm;27249;48.094;-1.690;2023-03-07T08:27:08;56.05;49.02;69.55;;
41518;Laerm;27249;48.094;-1.690;2023-03-07T08:29:34;57.03;47.88;63.87;;
41518;Laerm;27249;48.094;-1.690;2023-03-07T08:31:59;57.80;51.40;65.39;;
41518;Laerm;27249;48.094;-1.690;2023-03-07T08:34:25;57.19;50.61;63.37;;
41518;Laerm;27249;48.094;-1.690;2023-03-07T08:36:50;56.50;49.57;67.26;;
41518;Laerm;27249;48.094;-1.690;2023-03-07T08:39:17;57.18;50.96;63.71;;
41518;Laerm;27249;48.094;-1.690;2023-03-07T08:41:42;58.73;49.83;69.99;;
41518;Laerm;27249;48.094;-1.690;2023-03-07T08:44:07;57.19;49.50;64.69;;
41518;Laerm;27249;48.094;-1.690;2023-03-07T08:46:32;58.60;52.28;66.29;;
41518;Laerm;27249;48.094;-1.690;2023-03-07T08:48:58;57.24;51.22;65.08;;
41518;Laerm;27249;48.094;-1.690;2023-03-07T08:51:23;56.44;50.05;62.02;;
41518;Laerm;27249;48.094;-1.690;2023-03-07T08:53:48;57.06;51.59;64.33;;
41518;Laerm;27249;48.094;-1.690;2023-03-07T08:56:15;58.78;50.54;71.56;;
41518;Laerm;27249;48.094;-1.690;2023-03-07T08:58:40;57.84;49.07;68.55;;
41518;Laerm;27249;48.094;-1.690;2023-03-07T09:01:06;57.14;49.23;63.67;;
41518;Laerm;27249;48.094;-1.690;2023-03-07T09:03:32;56.64;48.70;63.38;;
41518;Laerm;27249;48.094;-1.690;2023-03-07T09:05:58;57.62;50.97;64.99;;
41518;Laerm;27249;48.094;-1.690;2023-03-07T09:08:23;57.21;51.30;62.09;;
41518;Laerm;27249;48.094;-1.690;2023-03-07T09:10:48;57.01;51.53;65.82;;
41518;Laerm;27249;48.094;-1.690;2023-03-07T09:13:13;58.24;51.38;63.89;;
41518;Laerm;27249;48.094;-1.690;2023-03-07T09:15:39;57.14;47.76;63.93;;
41518;Laerm;27249;48.094;-1.690;2023-03-07T09:18:05;56.89;49.36;62.59;;
41518;Laerm;27249;48.094;-1.690;2023-03-07T09:20:30;57.10;50.26;65.09;;
41518;Laerm;27249;48.094;-1.690;2023-03-07T09:22:56;58.26;51.44;66.61;;
41518;Laerm;27249;48.094;-1.690;2023-03-07T09:25:21;57.53;48.05;66.02;;
41518;Laerm;27249;48.094;-1.690;2023-03-07T09:27:46;54.69;47.55;68.85;;
41518;Laerm;27249;48.094;-1.690;2023-03-07T09:30:12;56.86;50.22;62.69;;
41518;Laerm;27249;48.094;-1.690;2023-03-07T09:32:37;56.30;49.03;63.34;;
41518;Laerm;27249;48.094;-1.690;2023-03-07T09:35:03;56.00;48.55;63.05;;
41518;Laerm;27249;48.094;-1.690;2023-03-07T09:37:28;56.72;51.05;65.57;;
41518;Laerm;27249;48.094;-1.690;2023-03-07T09:39:53;57.95;49.41;64.88;;
41518;Laerm;27249;48.094;-1.690;2023-03-07T09:50:11;57.14;50.87;63.74;;
41518;Laerm;27249;48.094;-1.690;2023-03-07T09:52:38;56.24;48.48;63.70;;
41518;Laerm;27249;48.094;-1.690;2023-03-07T09:55:08;57.32;49.51;65.34;;
41518;Laerm;27249;48.094;-1.690;2023-03-07T10:00:23;56.78;49.99;72.52;;
41518;Laerm;27249;48.094;-1.690;2023-03-07T10:03:12;58.20;51.59;67.54;;
41518;Laerm;27249;48.094;-1.690;2023-03-07T10:05:42;57.91;48.96;81.14;;
41518;Laerm;27249;48.094;-1.690;2023-03-07T10:08:19;57.29;48.37;68.32;;
41518;Laerm;27249;48.094;-1.690;2023-03-07T10:10:52;57.13;50.18;67.84;;
41518;Laerm;27249;48.094;-1.690;2023-03-07T10:13:26;56.57;50.24;63.04;;
41518;Laerm;27249;48.094;-1.690;2023-03-07T10:15:55;57.05;49.75;72.18;;
41518;Laerm;27249;48.094;-1.690;2023-03-07T10:18:32;56.49;48.02;74.91;;
41518;Laerm;27249;48.094;-1.690;2023-03-07T10:26:33;57.83;49.82;69.44;;
41518;Laerm;27249;48.094;-1.690;2023-03-07T10:29:00;56.89;48.18;63.61;;
41518;Laerm;27249;48.094;-1.690;2023-03-07T10:31:31;57.75;49.00;66.20;;
41518;Laerm;27249;48.094;-1.690;2023-03-07T10:33:58;57.69;50.20;68.52;;
41518;Laerm;27249;48.094;-1.690;2023-03-07T10:39:24;56.24;48.52;65.71;;
41518;Laerm;27249;48.094;-1.690;2023-03-07T10:41:51;56.32;49.74;65.86;;
41518;Laerm;27249;48.094;-1.690;2023-03-07T10:44:17;56.26;46.84;66.78;;
41518;Laerm;27249;48.094;-1.690;2023-03-07T10:46:44;57.92;49.36;73.10;;
41518;Laerm;27249;48.094;-1.690;2023-03-07T10:49:17;57.29;49.07;65.49;;
41518;Laerm;27249;48.094;-1.690;2023-03-07T10:54:22;56.67;48.90;68.23;;
41518;Laerm;27249;48.094;-1.690;2023-03-07T10:59:32;57.26;48.91;64.59;;
41518;Laerm;27249;48.094;-1.690;2023-03-07T11:01:59;56.42;47.67;64.84;;
41518;Laerm;27249;48.094;-1.690;2023-03-07T11:06:57;57.67;49.45;67.37;;
41518;Laerm;27249;48.094;-1.690;2023-03-07T11:14:19;59.32;48.51;73.65;;
41518;Laerm;27249;48.094;-1.690;2023-03-07T11:17:01;58.81;49.64;71.81;;
41518;Laerm;27249;48.094;-1.690;2023-03-07T11:21:58;57.42;51.46;63.66;;
41518;Laerm;27249;48.094;-1.690;2023-03-07T11:26:50;56.26;47.02;71.67;;
41518;Laerm;27249;48.094;-1.690;2023-03-07T11:29:17;55.60;47.46;66.40;;
41518;Laerm;27249;48.094;-1.690;2023-03-07T11:31:57;56.88;49.88;70.79;;
41518;Laerm;27249;48.094;-1.690;2023-03-07T11:34:31;54.93;46.91;65.73;;
41518;Laerm;27249;48.094;-1.690;2023-03-07T11:42:14;55.98;47.63;71.11;;
41518;Laerm;27249;48.094;-1.690;2023-03-07T11:44:59;55.84;47.14;68.33;;
41518;Laerm;27249;48.094;-1.690;2023-03-07T11:55:24;56.74;46.97;66.91;;
41518;Laerm;27249;48.094;-1.690;2023-03-07T12:03:12;55.75;46.13;66.75;;
41518;Laerm;27249;48.094;-1.690;2023-03-07T12:05:52;55.83;47.59;64.66;;
41518;Laerm;27249;48.094;-1.690;2023-03-07T12:08:24;53.23;45.14;64.52;;
41518;Laerm;27249;48.094;-1.690;2023-03-07T12:13:52;58.05;48.94;73.09;;
41518;Laerm;27249;48.094;-1.690;2023-03-07T12:21:27;55.95;46.59;69.92;;
41518;Laerm;27249;48.094;-1.690;2023-03-07T12:24:00;56.12;48.40;64.04;;
41518;Laerm;27249;48.094;-1.690;2023-03-07T12:26:35;56.36;49.18;76.23;;
41518;Laerm;27249;48.094;-1.690;2023-03-07T12:31:32;57.23;50.59;71.35;;
41518;Laerm;27249;48.094;-1.690;2023-03-07T12:36:43;59.62;51.40;76.21;;
41518;Laerm;27249;48.094;-1.690;2023-03-07T12:44:58;56.66;48.43;74.80;;
41518;Laerm;27249;48.094;-1.690;2023-03-07T12:47:42;57.55;48.84;68.69;;
41518;Laerm;27249;48.094;-1.690;2023-03-07T12:55:06;57.19;48.92;63.37;;
41518;Laerm;27249;48.094;-1.690;2023-03-07T12:57:36;58.13;50.91;70.82;;
41518;Laerm;27249;48.094;-1.690;2023-03-07T13:00:05;57.26;46.57;70.32;;
41518;Laerm;27249;48.094;-1.690;2023-03-07T13:02:32;57.59;48.71;66.11;;
41518;Laerm;27249;48.094;-1.690;2023-03-07T13:05:01;56.34;49.18;68.03;;
41518;Laerm;27249;48.094;-1.690;2023-03-07T13:07:29;56.39;49.81;69.73;;
41518;Laerm;27249;48.094;-1.690;2023-03-07T13:09:56;56.18;48.16;72.07;;
41518;Laerm;27249;48.094;-1.690;2023-03-07T13:12:28;55.85;49.74;79.31;;
41518;Laerm;27249;48.094;-1.690;2023-03-07T13:27:59;56.30;49.28;69.14;;
41518;Laerm;27249;48.094;-1.690;2023-03-07T13:30:28;55.22;47.28;66.25;;
41518;Laerm;27249;48.094;-1.690;2023-03-07T13:33:00;57.77;51.01;65.26;;
41518;Laerm;27249;48.094;-1.690;2023-03-07T13:38:45;56.92;48.02;70.66;;
41518;Laerm;27249;48.094;-1.690;2023-03-07T13:40:53;56.73;47.04;76.31;;
41518;Laerm;27249;48.094;-1.690;2023-03-07T13:45:45;55.84;48.36;69.40;;
41518;Laerm;27249;48.094;-1.690;2023-03-07T13:48:11;55.64;47.18;67.95;;
41518;Laerm;27249;48.094;-1.690;2023-03-07T13:55:50;56.53;49.19;64.28;;
41518;Laerm;27249;48.094;-1.690;2023-03-07T13:58:30;56.74;49.06;65.41;;
41518;Laerm;27249;48.094;-1.690;2023-03-07T14:01:13;56.01;50.19;61.66;;
41518;Laerm;27249;48.094;-1.690;2023-03-07T14:03:43;57.16;48.77;65.33;;
41518;Laerm;27249;48.094;-1.690;2023-03-07T14:06:10;56.67;49.36;65.78;;
41518;Laerm;27249;48.094;-1.690;2023-03-07T14:08:37;56.41;48.69;66.51;;
41518;Laerm;27249;48.094;-1.690;2023-03-07T14:11:03;56.29;50.24;63.24;;
41518;Laerm;27249;48.094;-1.690;2023-03-07T14:26:18;56.27;51.04;65.87;;
41518;Laerm;27249;48.094;-1.690;2023-03-07T14:28:49;55.97;48.80;65.21;;
41518;Laerm;27249;48.094;-1.690;2023-03-07T14:31:22;56.83;47.52;69.65;;
41518;Laerm;27249;48.094;-1.690;2023-03-07T14:33:49;56.68;49.07;64.08;;
41518;Laerm;27249;48.094;-1.690;2023-03-07T14:36:16;68.33;50.15;88.26;;
41518;Laerm;27249;48.094;-1.690;2023-03-07T14:38:43;60.57;49.29;75.59;;
41518;Laerm;27249;48.094;-1.690;2023-03-07T14:46:48;58.51;51.91;72.46;;
41518;Laerm;27249;48.094;-1.690;2023-03-07T14:51:24;57.18;49.83;68.97;;
41518;Laerm;27249;48.094;-1.690;2023-03-07T14:53:52;57.20;51.16;65.10;;
41518;Laerm;27249;48.094;-1.690;2023-03-07T14:56:23;56.98;48.20;66.35;;
41518;Laerm;27249;48.094;-1.690;2023-03-07T14:58:51;57.28;49.20;64.52;;
41518;Laerm;27249;48.094;-1.690;2023-03-07T15:01:18;56.39;49.49;64.41;;
41518;Laerm;27249;48.094;-1.690;2023-03-07T15:03:53;56.41;50.33;66.48;;
41518;Laerm;27249;48.094;-1.690;2023-03-07T15:06:19;57.65;50.54;65.26;;
41518;Laerm;27249;48.094;-1.690;2023-03-07T15:08:45;58.39;49.57;68.39;;
41518;Laerm;27249;48.094;-1.690;2023-03-07T15:11:30;59.62;50.44;74.02;;
41518;Laerm;27249;48.094;-1.690;2023-03-07T15:14:13;57.44;52.03;70.89;;
41518;Laerm;27249;48.094;-1.690;2023-03-07T15:16:46;58.89;52.31;70.83;;
41518;Laerm;27249;48.094;-1.690;2023-03-07T15:19:19;56.69;49.90;63.28;;
41518;Laerm;27249;48.094;-1.690;2023-03-07T15:21:51;56.65;49.97;68.34;;
41518;Laerm;27249;48.094;-1.690;2023-03-07T15:24:31;59.97;51.89;74.12;;
41518;Laerm;27249;48.094;-1.690;2023-03-07T15:26:57;56.83;48.90;63.41;;
41518;Laerm;27249;48.094;-1.690;2023-03-07T15:29:25;57.13;49.07;68.08;;
41518;Laerm;27249;48.094;-1.690;2023-03-07T15:31:52;56.53;49.60;62.59;;
41518;Laerm;27249;48.094;-1.690;2023-03-07T15:36:54;56.76;50.02;62.88;;
41518;Laerm;27249;48.094;-1.690;2023-03-07T15:39:36;56.87;50.90;65.01;;
41518;Laerm;27249;48.094;-1.690;2023-03-07T15:42:05;58.00;51.23;67.96;;
41518;Laerm;27249;48.094;-1.690;2023-03-07T15:44:31;57.35;52.39;66.47;;